Time;durP1;ratioP1;P1;durP2;ratioP2;P2;SDS_P1;SDS_P2;PMS_P1;PMS_P2;Temp;Humidity;BMP_temperature;BMP_pressure;BME280_temperature;BME280_humidity;BME280_pressure;Samples;Min_cycle;Max_cycle;Signal;HPM_P1;HPM_P2
2022/06/08 00:00:26;;;;;;;6.07;3.60;;;;;;;;;;5063799;28;20449;-84
2022/06/08 00:02:57;;;;;;;5.60;3.90;;;;;;;;;;5064263;28;20409;-85
2022/06/08 00:05:23;;;;;;;4.83;3.03;;;;;;;;;;5081473;28;20452;-85
2022/06/08 00:07:49;;;;;;;6.07;3.40;;;;;;;;;;5053524;28;20409;-87
2022/06/08 00:10:15;;;;;;;4.27;3.20;;;;;;;;;;5045677;28;20514;-86
2022/06/08 00:12:41;;;;;;;4.97;3.27;;;;;;;;;;5044842;28;20401;-86
2022/06/08 00:15:08;;;;;;;2.83;2.50;;;;;;;;;;5062340;28;20402;-85
2022/06/08 00:17:34;;;;;;;4.57;2.73;;;;;;;;;;5062581;28;20429;-86
2022/06/08 00:20:00;;;;;;;3.87;2.33;;;;;;;;;;5044683;28;20478;-87
2022/06/08 00:22:26;;;;;;;3.33;2.80;;;;;;;;;;5062043;28;20905;-86
2022/06/08 00:24:52;;;;;;;3.33;2.40;;;;;;;;;;5043287;28;20429;-85
2022/06/08 00:27:18;;;;;;;2.90;2.60;;;;;;;;;;5044137;28;20409;-86
2022/06/08 00:29:44;;;;;;;3.03;2.63;;;;;;;;;;5061845;28;20429;-86
2022/06/08 00:32:10;;;;;;;4.40;2.00;;;;;;;;;;5061829;28;20401;-86
2022/06/08 00:34:36;;;;;;;2.70;2.20;;;;;;;;;;5051857;28;20492;-85
2022/06/08 00:37:03;;;;;;;3.40;2.00;;;;;;;;;;5043756;28;20451;-86
2022/06/08 00:39:29;;;;;;;2.10;1.60;;;;;;;;;;5043755;28;20449;-86
2022/06/08 00:42:01;;;;;;;2.77;2.17;;;;;;;;;;5043678;28;20421;-86
2022/06/08 00:44:32;;;;;;;4.70;2.13;;;;;;;;;;5043091;28;20417;-86
2022/06/08 00:46:59;;;;;;;3.80;1.90;;;;;;;;;;5042921;28;20448;-87
2022/06/08 00:49:47;;;;;;;8.27;3.40;;;;;;;;;;5043781;28;20443;-86
2022/06/08 00:52:14;;;;;;;5.40;3.60;;;;;;;;;;5043240;28;20405;-87
2022/06/08 00:54:42;;;;;;;6.77;2.80;;;;;;;;;;5043135;28;20410;-86
2022/06/08 00:57:08;;;;;;;4.40;2.40;;;;;;;;;;5061341;28;20456;-87
2022/06/08 00:59:35;;;;;;;5.43;2.50;;;;;;;;;;5042501;28;20940;-86
2022/06/08 01:02:01;;;;;;;3.30;2.40;;;;;;;;;;5043035;28;20416;-87
2022/06/08 01:04:27;;;;;;;4.33;2.57;;;;;;;;;;5044825;28;20504;-87
2022/06/08 01:06:55;;;;;;;2.83;2.03;;;;;;;;;;5044801;28;20464;-87
2022/06/08 01:09:33;;;;;;;6.20;2.70;;;;;;;;;;5061992;28;20468;-86
2022/06/08 01:12:00;;;;;;;9.63;2.33;;;;;;;;;;5044815;28;20401;-86
2022/06/08 01:14:27;;;;;;;8.13;3.63;;;;;;;;;;5062018;28;20924;-86
2022/06/08 01:17:02;;;;;;;7.23;3.70;;;;;;;;;;5043375;28;20406;-85
2022/06/08 01:19:28;;;;;;;4.80;3.10;;;;;;;;;;5061339;28;20943;-86
2022/06/08 01:21:55;;;;;;;3.20;2.30;;;;;;;;;;5061693;28;20409;-87
2022/06/08 01:24:22;;;;;;;3.77;2.47;;;;;;;;;;5060092;28;20429;-87
2022/06/08 01:26:48;;;;;;;3.97;2.73;;;;;;;;;;5061587;28;20550;-86
2022/06/08 01:29:26;;;;;;;3.03;2.40;;;;;;;;;;5062387;28;20479;-85
2022/06/08 01:32:04;;;;;;;4.30;2.33;;;;;;;;;;5081131;28;20446;-87
2022/06/08 01:34:30;;;;;;;4.53;2.17;;;;;;;;;;5080530;28;20823;-87
2022/06/08 01:37:20;;;;;;;3.20;2.30;;;;;;;;;;5062793;28;20417;-86
2022/06/08 01:40:02;;;;;;;2.97;2.33;;;;;;;;;;5052200;28;20547;-86
2022/06/08 01:42:40;;;;;;;3.43;2.03;;;;;;;;;;5080211;28;20888;-87
2022/06/08 01:45:33;;;;;;;2.83;2.07;;;;;;;;;;5080952;28;20404;-86
2022/06/08 01:48:08;;;;;;;4.10;2.50;;;;;;;;;;5091781;28;20385;-86
2022/06/08 01:50:35;;;;;;;4.00;2.67;;;;;;;;;;5087077;28;20392;-86
2022/06/08 01:53:08;;;;;;;2.53;2.17;;;;;;;;;;5062552;28;20409;-86
2022/06/08 01:55:37;;;;;;;3.60;2.40;;;;;;;;;;5080603;28;20412;-86
2022/06/08 01:58:03;;;;;;;3.03;2.67;;;;;;;;;;5080992;28;20474;-87
2022/06/08 02:00:35;;;;;;;2.83;2.23;;;;;;;;;;5063675;28;20470;-86
2022/06/08 02:03:01;;;;;;;2.83;2.13;;;;;;;;;;5062134;28;20483;-85
2022/06/08 02:05:50;;;;;;;2.50;2.00;;;;;;;;;;5062090;28;20448;-86
2022/06/08 02:08:35;;;;;;;3.30;2.20;;;;;;;;;;5079739;28;20400;-86
2022/06/08 02:11:04;;;;;;;2.70;2.10;;;;;;;;;;5062221;28;20397;-86
2022/06/08 02:13:38;;;;;;;3.63;1.90;;;;;;;;;;5062097;28;20405;-86
2022/06/08 02:16:14;;;;;;;2.93;2.10;;;;;;;;;;5062869;28;20400;-86
2022/06/08 02:18:45;;;;;;;3.97;1.93;;;;;;;;;;5069484;28;20420;-86
2022/06/08 02:21:20;;;;;;;3.07;2.20;;;;;;;;;;5085740;28;20401;-85
2022/06/08 02:24:10;;;;;;;3.00;2.00;;;;;;;;;;5085362;28;20499;-87
2022/06/08 02:26:39;;;;;;;2.27;1.70;;;;;;;;;;5069569;28;20453;-86
2022/06/08 02:29:09;;;;;;;2.23;2.00;;;;;;;;;;5080513;28;20459;-87
2022/06/08 02:31:38;;;;;;;6.73;2.00;;;;;;;;;;5081688;28;20473;-85
2022/06/08 02:34:49;;;;;;;3.63;3.13;;;;;;;;;;5061833;28;20784;-87
2022/06/08 02:37:02;;;;;;;2.87;1.90;;;;;;;;;;5070243;28;20504;-87
2022/06/08 02:39:28;;;;;;;3.30;2.43;;;;;;;;;;5079485;28;20433;-87
2022/06/08 02:41:56;;;;;;;4.27;1.90;;;;;;;;;;5060553;28;20416;-85
2022/06/08 02:44:25;;;;;;;2.53;2.07;;;;;;;;;;5060643;28;20417;-86
2022/06/08 02:46:51;;;;;;;2.40;2.17;;;;;;;;;;5060873;28;20480;-86
2022/06/08 02:49:17;;;;;;;2.30;1.90;;;;;;;;;;5060802;28;20795;-86
2022/06/08 02:51:48;;;;;;;3.00;2.40;;;;;;;;;;5078956;28;20396;-87
2022/06/08 02:54:19;;;;;;;4.00;2.50;;;;;;;;;;5078924;28;20401;-86
2022/06/08 02:56:45;;;;;;;3.37;1.90;;;;;;;;;;5060038;28;20826;-85
2022/06/08 02:59:11;;;;;;;3.50;1.90;;;;;;;;;;5078177;28;21026;-86
2022/06/08 03:01:49;;;;;;;3.70;2.50;;;;;;;;;;5074403;28;20428;-85
2022/06/08 03:04:19;;;;;;;3.77;2.20;;;;;;;;;;5079914;28;20494;-86
2022/06/08 03:06:51;;;;;;;2.57;2.13;;;;;;;;;;5059768;28;20440;-86
2022/06/08 03:09:18;;;;;;;3.47;2.47;;;;;;;;;;5060311;28;20502;-86
2022/06/08 03:11:47;;;;;;;3.77;2.60;;;;;;;;;;5060101;28;20405;-86
2022/06/08 03:14:14;;;;;;;3.20;2.73;;;;;;;;;;5061110;28;20409;-85
2022/06/08 03:16:42;;;;;;;4.10;2.40;;;;;;;;;;5072061;28;20404;-84
2022/06/08 03:19:09;;;;;;;3.50;2.90;;;;;;;;;;5080516;28;20437;-86
2022/06/08 03:21:36;;;;;;;3.80;2.27;;;;;;;;;;5078926;28;20412;-87
2022/06/08 03:24:03;;;;;;;2.83;2.40;;;;;;;;;;5060395;28;20419;-85
2022/06/08 03:26:35;;;;;;;2.70;2.00;;;;;;;;;;5057835;28;20467;-85
2022/06/08 03:29:01;;;;;;;2.80;2.20;;;;;;;;;;5076725;28;20428;-86
2022/06/08 03:31:27;;;;;;;3.10;1.87;;;;;;;;;;5075532;28;20776;-85
2022/06/08 03:33:54;;;;;;;5.03;2.20;;;;;;;;;;5058581;28;20474;-85
2022/06/08 03:36:20;;;;;;;2.10;1.87;;;;;;;;;;5058954;28;20415;-85
2022/06/08 03:38:46;;;;;;;2.23;1.80;;;;;;;;;;5058594;28;20471;-85
2022/06/08 03:41:12;;;;;;;2.90;1.93;;;;;;;;;;5059053;28;20420;-86
2022/06/08 03:43:38;;;;;;;2.73;1.97;;;;;;;;;;5059766;28;20782;-85
2022/06/08 03:46:05;;;;;;;2.07;1.60;;;;;;;;;;5077579;28;20463;-86
2022/06/08 03:48:33;;;;;;;1.93;1.57;;;;;;;;;;5059434;28;20475;-86
2022/06/08 03:51:00;;;;;;;3.43;1.70;;;;;;;;;;5077615;28;20412;-86
2022/06/08 03:53:37;;;;;;;2.90;2.30;;;;;;;;;;5077396;28;20454;-85
2022/06/08 03:56:05;;;;;;;3.50;2.63;;;;;;;;;;5060845;28;20401;-86
2022/06/08 03:58:31;;;;;;;2.53;1.80;;;;;;;;;;5060072;28;20424;-85
2022/06/08 04:00:57;;;;;;;2.80;2.00;;;;;;;;;;5079092;28;20407;-85
2022/06/08 04:03:24;;;;;;;2.40;1.90;;;;;;;;;;5078349;28;20886;-85
2022/06/08 04:05:50;;;;;;;2.20;1.80;;;;;;;;;;5077876;28;20804;-85
2022/06/08 04:08:16;;;;;;;4.53;2.00;;;;;;;;;;5060050;28;20405;-85
2022/06/08 04:10:42;;;;;;;2.37;1.83;;;;;;;;;;5060342;28;20800;-83
2022/06/08 04:13:08;;;;;;;3.63;2.10;;;;;;;;;;5078497;28;20865;-85
2022/06/08 04:15:43;;;;;;;2.30;1.77;;;;;;;;;;5059933;28;20423;-85
2022/06/08 04:18:16;;;;;;;1.80;1.43;;;;;;;;;;5076829;28;20385;-87
2022/06/08 04:20:44;;;;;;;2.57;1.90;;;;;;;;;;5058967;28;20409;-86
2022/06/08 04:23:10;;;;;;;4.67;2.50;;;;;;;;;;5058727;28;20412;-86
2022/06/08 04:25:37;;;;;;;3.00;2.07;;;;;;;;;;5058659;28;20452;-85
2022/06/08 04:28:03;;;;;;;5.23;2.10;;;;;;;;;;5077482;28;20434;-85
2022/06/08 04:30:29;;;;;;;4.93;2.10;;;;;;;;;;5077405;28;20425;-86
2022/06/08 04:32:55;;;;;;;2.63;2.10;;;;;;;;;;5077138;28;20495;-87
2022/06/08 04:35:21;;;;;;;2.40;1.93;;;;;;;;;;5059054;28;20443;-86
2022/06/08 04:37:47;;;;;;;3.20;2.23;;;;;;;;;;5076494;28;20431;-84
2022/06/08 04:40:15;;;;;;;2.63;1.87;;;;;;;;;;5097009;22;20503;-87
2022/06/08 04:42:41;;;;;;;2.23;1.97;;;;;;;;;;5074319;28;20466;-86
2022/06/08 04:45:09;;;;;;;2.87;1.83;;;;;;;;;;5077700;28;20479;-86
2022/06/08 04:47:35;;;;;;;1.93;1.60;;;;;;;;;;5077730;28;20912;-87
2022/06/08 04:50:01;;;;;;;6.20;2.50;;;;;;;;;;5077933;28;20424;-86
2022/06/08 04:52:27;;;;;;;2.53;1.80;;;;;;;;;;5091548;28;20465;-86
2022/06/08 04:54:53;;;;;;;3.07;2.30;;;;;;;;;;5080897;28;20413;-86
2022/06/08 04:57:20;;;;;;;3.10;2.40;;;;;;;;;;5079443;28;20400;-86
2022/06/08 04:59:46;;;;;;;2.50;1.80;;;;;;;;;;5079306;28;20425;-86
2022/06/08 05:02:12;;;;;;;2.57;1.60;;;;;;;;;;5061274;28;20431;-86
2022/06/08 05:04:38;;;;;;;5.10;1.50;;;;;;;;;;5078539;28;20409;-86
2022/06/08 05:07:04;;;;;;;4.40;1.90;;;;;;;;;;5077982;28;20525;-86
2022/06/08 05:09:30;;;;;;;2.20;1.93;;;;;;;;;;5078283;28;20936;-86
2022/06/08 05:11:56;;;;;;;3.90;1.70;;;;;;;;;;5060046;28;20499;-85
2022/06/08 05:14:22;;;;;;;2.70;1.93;;;;;;;;;;5077518;28;20401;-86
2022/06/08 05:16:48;;;;;;;2.87;1.60;;;;;;;;;;5077595;28;20434;-86
2022/06/08 05:19:14;;;;;;;9.13;6.40;;;;;;;;;;5077444;28;20488;-86
2022/06/08 05:21:40;;;;;;;5.83;2.03;;;;;;;;;;5076918;28;20427;-86
2022/06/08 05:24:06;;;;;;;3.30;2.00;;;;;;;;;;5077149;28;20912;-86
2022/06/08 05:26:32;;;;;;;5.10;2.20;;;;;;;;;;5076618;28;20447;-86
2022/06/08 05:28:59;;;;;;;2.73;1.53;;;;;;;;;;5077054;28;20838;-86
2022/06/08 05:31:25;;;;;;;3.03;2.00;;;;;;;;;;5077523;28;20397;-86
2022/06/08 05:33:52;;;;;;;3.23;2.10;;;;;;;;;;5077216;28;20945;-86
2022/06/08 05:36:18;;;;;;;2.50;1.80;;;;;;;;;;5076839;28;20437;-86
2022/06/08 05:38:44;;;;;;;2.70;1.67;;;;;;;;;;5076721;28;20770;-86
2022/06/08 05:41:10;;;;;;;4.13;2.00;;;;;;;;;;5059865;28;20413;-86
2022/06/08 05:43:37;;;;;;;6.23;1.87;;;;;;;;;;5089545;28;20414;-87
2022/06/08 05:46:03;;;;;;;3.20;2.00;;;;;;;;;;5073645;28;20968;-86
2022/06/08 05:48:29;;;;;;;2.53;1.90;;;;;;;;;;5089338;28;20419;-86
2022/06/08 05:50:55;;;;;;;3.20;1.43;;;;;;;;;;5084151;28;20425;-86
2022/06/08 05:53:21;;;;;;;7.07;2.20;;;;;;;;;;5076581;28;20405;-86
2022/06/08 05:55:48;;;;;;;3.10;1.80;;;;;;;;;;5075623;28;20408;-86
2022/06/08 05:58:14;;;;;;;2.83;1.73;;;;;;;;;;5076508;28;20511;-86
2022/06/08 06:00:41;;;;;;;9.60;1.50;;;;;;;;;;5076298;28;20538;-86
2022/06/08 06:03:08;;;;;;;2.53;1.70;;;;;;;;;;5076655;28;20413;-86
2022/06/08 06:05:34;;;;;;;2.37;1.63;;;;;;;;;;5076885;28;20440;-86
2022/06/08 06:08:00;;;;;;;2.67;1.67;;;;;;;;;;5076579;28;20470;-87
2022/06/08 06:10:29;;;;;;;2.00;1.53;;;;;;;;;;5076511;28;20452;-87
2022/06/08 06:12:55;;;;;;;3.30;1.43;;;;;;;;;;5077611;28;20409;-86
2022/06/08 06:15:23;;;;;;;6.80;1.80;;;;;;;;;;5076400;28;20480;-86
2022/06/08 06:17:49;;;;;;;4.07;1.57;;;;;;;;;;5076819;28;20392;-87
2022/06/08 06:20:15;;;;;;;3.50;1.60;;;;;;;;;;5076698;28;20423;-86
2022/06/08 06:22:41;;;;;;;8.07;2.33;;;;;;;;;;5058638;28;20409;-87
2022/06/08 06:25:08;;;;;;;1.70;1.10;;;;;;;;;;5075948;28;20396;-86
2022/06/08 06:27:34;;;;;;;3.40;1.97;;;;;;;;;;5075543;28;20408;-86
2022/06/08 06:30:00;;;;;;;2.57;1.77;;;;;;;;;;5075320;28;20791;-86
2022/06/08 06:32:31;;;;;;;4.20;1.40;;;;;;;;;;5075562;28;20427;-86
2022/06/08 06:34:58;;;;;;;3.03;1.50;;;;;;;;;;5076988;28;20403;-86
2022/06/08 06:37:24;;;;;;;2.40;1.53;;;;;;;;;;5075937;28;20935;-86
2022/06/08 06:39:51;;;;;;;3.10;1.60;;;;;;;;;;5076013;28;20479;-87
2022/06/08 06:42:21;;;;;;;2.53;1.47;;;;;;;;;;5057902;28;20451;-87
2022/06/08 06:44:47;;;;;;;3.70;1.70;;;;;;;;;;5058476;28;20466;-86
2022/06/08 06:47:14;;;;;;;3.03;1.50;;;;;;;;;;5075502;28;20451;-86
2022/06/08 06:49:40;;;;;;;3.10;1.63;;;;;;;;;;5075879;28;20952;-86
2022/06/08 06:52:06;;;;;;;4.50;1.97;;;;;;;;;;5075312;28;20783;-86
2022/06/08 06:54:33;;;;;;;3.50;1.43;;;;;;;;;;5075393;28;20436;-86
2022/06/08 06:56:59;;;;;;;4.87;1.67;;;;;;;;;;5075256;28;20417;-86
2022/06/08 06:59:25;;;;;;;5.80;1.60;;;;;;;;;;5074857;28;20436;-86
2022/06/08 07:01:51;;;;;;;3.10;1.60;;;;;;;;;;5074967;28;20413;-86
2022/06/08 07:04:18;;;;;;;4.43;2.00;;;;;;;;;;5057402;28;20416;-86
2022/06/08 07:06:44;;;;;;;3.03;1.40;;;;;;;;;;5084669;28;20448;-86
2022/06/08 07:09:10;;;;;;;6.43;1.70;;;;;;;;;;5076174;28;20425;-86
2022/06/08 07:11:40;;;;;;;2.03;1.47;;;;;;;;;;5077377;28;20462;-86
2022/06/08 07:14:06;;;;;;;6.20;1.90;;;;;;;;;;5090096;28;20496;-86
2022/06/08 07:16:33;;;;;;;5.10;1.50;;;;;;;;;;5074835;28;20412;-86
2022/06/08 07:18:59;;;;;;;2.43;1.53;;;;;;;;;;5075796;28;20429;-86
2022/06/08 07:21:25;;;;;;;2.77;1.33;;;;;;;;;;5074588;28;20545;-86
2022/06/08 07:23:51;;;;;;;3.43;1.53;;;;;;;;;;5073408;28;20561;-86
2022/06/08 07:26:17;;;;;;;3.60;1.70;;;;;;;;;;5078515;28;20480;-87
2022/06/08 07:28:44;;;;;;;3.93;1.80;;;;;;;;;;5075425;28;20412;-87
2022/06/08 07:31:12;;;;;;;4.50;1.50;;;;;;;;;;5077939;28;20420;-85
2022/06/08 07:33:38;;;;;;;5.73;1.60;;;;;;;;;;5078890;28;20412;-85
2022/06/08 07:36:04;;;;;;;4.33;1.70;;;;;;;;;;5080118;28;20435;-87
2022/06/08 07:38:30;;;;;;;4.70;1.80;;;;;;;;;;5078013;28;20420;-86
2022/06/08 07:40:58;;;;;;;5.43;2.00;;;;;;;;;;5103349;22;20488;-85
2022/06/08 07:43:33;;;;;;;4.20;2.10;;;;;;;;;;5078943;28;20436;-86
2022/06/08 07:45:59;;;;;;;5.93;1.63;;;;;;;;;;5079844;28;20459;-85
2022/06/08 07:51:12;;;;;;;3.30;1.50;;;;;;;;;;5046574;28;20400;-86
2022/06/08 07:53:46;;;;;;;7.30;1.90;;;;;;;;;;5059785;28;20417;-86
2022/06/08 07:56:12;;;;;;;1.90;1.37;;;;;;;;;;5057003;28;20398;-87
2022/06/08 07:59:00;;;;;;;3.97;1.70;;;;;;;;;;5060763;28;20437;-84
2022/06/08 08:01:57;;;;;;;;;;;;;;;;;;;;;
2022/06/08 08:04:44;;;;;;;2.43;1.40;;;;;;;;;;5056366;28;20977;-86
2022/06/08 08:07:26;;;;;;;6.40;1.57;;;;;;;;;;5031303;28;20470;-87
2022/06/08 08:09:54;;;;;;;2.10;1.50;;;;;;;;;;5043143;28;20461;-86
2022/06/08 08:12:25;;;;;;;4.60;2.13;;;;;;;;;;5058965;28;20421;-87
2022/06/08 08:14:57;;;;;;;5.57;2.40;;;;;;;;;;5057981;28;20424;-87
2022/06/08 08:17:54;;;;;;;5.60;1.90;;;;;;;;;;5056106;28;20412;-86
2022/06/08 08:20:26;;;;;;;4.20;1.47;;;;;;;;;;5045813;28;20960;-86
2022/06/08 08:22:56;;;;;;;3.50;1.83;;;;;;;;;;5061821;28;20402;-86
2022/06/08 08:25:42;;;;;;;4.67;1.80;;;;;;;;;;5061358;28;20417;-86
2022/06/08 08:28:08;;;;;;;2.27;1.30;;;;;;;;;;5060966;28;20408;-87
2022/06/08 08:30:55;;;;;;;4.13;1.70;;;;;;;;;;5139826;22;20500;-87
2022/06/08 08:33:21;;;;;;;2.77;1.20;;;;;;;;;;5082644;28;20501;-85
2022/06/08 08:35:50;;;;;;;3.93;1.40;;;;;;;;;;5085037;28;20404;-86
2022/06/08 08:38:16;;;;;;;2.17;1.20;;;;;;;;;;5085424;28;20404;-87
2022/06/08 08:42:20;;;;;;;2.73;1.40;;;;;;;;;;5085532;28;20807;-87
2022/06/08 08:44:05;;;;;;;3.47;1.30;;;;;;;;;;5083871;28;20420;-86
2022/06/08 08:46:48;;;;;;;2.63;1.20;;;;;;;;;;5084163;28;20973;-86
2022/06/08 08:49:41;;;;;;;2.70;1.40;;;;;;;;;;5084379;28;20467;-88
2022/06/08 08:52:30;;;;;;;2.07;1.30;;;;;;;;;;5050314;28;20466;-87
2022/06/08 08:55:24;;;;;;;5.40;2.90;;;;;;;;;;5070097;28;20436;-86
2022/06/08 08:58:09;;;;;;;2.33;1.13;;;;;;;;;;5084040;28;20397;-85
2022/06/08 09:00:42;;;;;;;4.17;1.20;;;;;;;;;;5082271;28;20491;-87
2022/06/08 09:03:29;;;;;;;4.03;2.20;;;;;;;;;;5072687;28;20409;-86
2022/06/08 09:06:07;;;;;;;7.50;1.70;;;;;;;;;;5075304;28;20460;-88
2022/06/08 09:08:36;;;;;;;5.93;1.50;;;;;;;;;;5082505;28;20476;-86
2022/06/08 09:13:49;;;;;;;3.60;1.50;;;;;;;;;;5062384;28;20432;-87
2022/06/08 09:16:27;;;;;;;2.90;1.10;;;;;;;;;;5067270;28;20420;-87
2022/06/08 09:18:53;;;;;;;5.10;1.67;;;;;;;;;;5084641;28;20409;-86
2022/06/08 09:21:22;;;;;;;6.33;1.80;;;;;;;;;;5084345;28;20744;-87
2022/06/08 09:24:04;;;;;;;4.90;1.63;;;;;;;;;;5084126;28;20760;-87
2022/06/08 09:26:32;;;;;;;2.87;1.50;;;;;;;;;;5085685;28;20455;-87
2022/06/08 09:29:06;;;;;;;4.50;1.70;;;;;;;;;;5060199;28;20436;-87
2022/06/08 09:31:36;;;;;;;3.13;1.33;;;;;;;;;;5082206;28;20427;-87
2022/06/08 09:34:21;;;;;;;7.10;1.40;;;;;;;;;;5062087;28;20899;-86
2022/06/08 09:37:03;;;;;;;6.17;1.80;;;;;;;;;;5057965;28;20409;-86
2022/06/08 09:39:35;;;;;;;3.27;1.47;;;;;;;;;;5046192;28;20519;-87
2022/06/08 09:42:05;;;;;;;5.23;1.40;;;;;;;;;;5059466;28;20404;-87
2022/06/08 09:44:36;;;;;;;3.70;1.70;;;;;;;;;;5078225;28;20436;-87
2022/06/08 09:52:44;;;;;;;2.37;1.50;;;;;;;;;;5078924;28;20793;-86
2022/06/08 09:55:20;;;;;;;2.70;1.50;;;;;;;;;;5080114;28;20393;-86
2022/06/08 09:57:49;;;;;;;4.33;1.87;;;;;;;;;;5061997;28;20416;-86
2022/06/08 10:00:21;;;;;;;3.40;1.87;;;;;;;;;;5080218;28;20474;-87
2022/06/08 10:03:08;;;;;;;4.50;2.00;;;;;;;;;;5082137;28;20419;-87
2022/06/08 10:05:45;;;;;;;3.47;1.90;;;;;;;;;;5085051;28;20444;-87
2022/06/08 10:08:22;;;;;;;6.07;2.33;;;;;;;;;;5067797;28;20409;-87
2022/06/08 10:14:03;;;;;;;3.67;1.73;;;;;;;;;;5088928;28;20367;-88
2022/06/08 10:16:45;;;;;;;2.53;1.80;;;;;;;;;;5066314;28;20480;-87
2022/06/08 10:19:16;;;;;;;5.60;1.80;;;;;;;;;;5083738;28;20432;-87
2022/06/08 10:21:44;;;;;;;2.47;1.73;;;;;;;;;;5083378;28;20395;-87
2022/06/08 10:24:16;;;;;;;5.43;1.67;;;;;;;;;;5082533;28;20404;-87
2022/06/08 10:26:45;;;;;;;3.60;1.50;;;;;;;;;;5083153;28;20507;-87
2022/06/08 10:29:23;;;;;;;4.33;1.47;;;;;;;;;;5064674;28;20508;-87
2022/06/08 10:32:08;;;;;;;2.97;1.53;;;;;;;;;;5083371;28;20390;-87
2022/06/08 10:38:07;;;;;;;3.50;1.73;;;;;;;;;;4938114;29;20447;-84
2022/06/08 10:40:47;;;;;;;7.03;1.70;;;;;;;;;;4983381;28;20936;-86
2022/06/08 10:43:34;;;;;;;2.13;1.17;;;;;;;;;;5059409;28;20466;-85
2022/06/08 10:46:26;;;;;;;2.40;1.40;;;;;;;;;;5082949;22;20482;-85
2022/06/08 10:48:52;;;;;;;3.03;1.20;;;;;;;;;;5034566;28;20426;-87
2022/06/08 10:51:18;;;;;;;3.50;1.80;;;;;;;;;;5035890;28;20431;-84
2022/06/08 10:56:36;;;;;;;2.30;1.77;;;;;;;;;;5057453;28;21008;-84
2022/06/08 10:59:08;;;;;;;2.10;1.40;;;;;;;;;;5020655;28;20407;-86
2022/06/08 11:01:43;;;;;;;2.50;1.43;;;;;;;;;;5019628;28;20407;-87
2022/06/08 11:07:04;;;;;;;2.00;1.03;;;;;;;;;;5031360;28;20476;-87
2022/06/08 11:09:33;;;;;;;3.53;1.43;;;;;;;;;;5020822;28;20413;-87
2022/06/08 11:12:11;;;;;;;2.40;1.27;;;;;;;;;;5020744;28;20406;-87
2022/06/08 11:14:43;;;;;;;5.33;1.40;;;;;;;;;;5037419;28;20448;-87
2022/06/08 11:17:28;;;;;;;3.60;1.50;;;;;;;;;;5019208;28;20456;-87
2022/06/08 11:20:17;;;;;;;3.00;1.30;;;;;;;;;;5037469;28;20456;-86
2022/06/08 11:22:55;;;;;;;2.50;1.20;;;;;;;;;;5018865;28;20414;-87
2022/06/08 11:25:23;;;;;;;3.83;1.20;;;;;;;;;;5034063;28;20462;-86
2022/06/08 11:28:09;;;;;;;3.08;1.20;;;;;;;;;;5017481;28;20431;-86
2022/06/08 11:30:41;;;;;;;4.00;1.70;;;;;;;;;;5022834;28;20202;-88
2022/06/08 11:33:16;;;;;;;2.80;1.73;;;;;;;;;;5006585;28;20456;-87
2022/06/08 11:35:42;;;;;;;5.70;1.30;;;;;;;;;;5038143;28;20421;-87
2022/06/08 11:38:15;;;;;;;2.00;1.30;;;;;;;;;;5014658;28;20439;-88
2022/06/08 11:40:42;;;;;;;2.67;1.70;;;;;;;;;;5016601;28;20423;-86
2022/06/08 11:43:13;;;;;;;4.37;1.40;;;;;;;;;;5016348;28;20458;-86
2022/06/08 11:45:44;;;;;;;2.07;1.20;;;;;;;;;;5027139;28;20569;-87
2022/06/08 11:48:15;;;;;;;2.90;1.37;;;;;;;;;;5033057;28;20562;-85
2022/06/08 11:50:41;;;;;;;2.07;1.20;;;;;;;;;;5037679;28;20417;-86
2022/06/08 11:53:15;;;;;;;3.50;1.70;;;;;;;;;;5041512;28;20434;-88
2022/06/08 11:56:04;;;;;;;2.10;1.13;;;;;;;;;;5041461;28;20461;-87
2022/06/08 11:58:31;;;;;;;2.67;1.50;;;;;;;;;;5028338;28;20488;-88
2022/06/08 12:00:58;;;;;;;3.90;1.23;;;;;;;;;;5036220;28;20498;-88
2022/06/08 12:03:34;;;;;;;2.90;1.53;;;;;;;;;;5033566;28;20477;-87
2022/06/08 12:20:37;;;;;;;;;;;;;;;;;;;;;
2022/06/08 12:23:08;;;;;;;5.00;1.20;;;;;;;;;;5032658;28;20481;-88
2022/06/08 12:29:25;;;;;;;4.03;1.43;;;;;;;;;;5014632;28;20490;-86
2022/06/08 12:32:25;;;;;;;5.23;1.57;;;;;;;;;;5050418;28;20409;-87
2022/06/08 12:35:21;;;;;;;5.30;1.30;;;;;;;;;;5059193;28;20432;-86
2022/06/08 12:44:20;;;;;;;1.70;1.10;;;;;;;;;;5061687;28;20415;-86
2022/06/08 12:52:28;;;;;;;2.20;1.20;;;;;;;;;;1234811;26;20452;-87
2022/06/08 12:55:33;;;;;;;2.23;1.20;;;;;;;;;;4965856;28;20429;-87
2022/06/08 12:57:59;;;;;;;3.00;1.20;;;;;;;;;;4983387;28;20452;-88
2022/06/08 13:00:30;;;;;;;2.73;1.40;;;;;;;;;;4984263;28;20444;-88
2022/06/08 13:02:57;;;;;;;2.10;1.10;;;;;;;;;;4984608;28;20508;-88
2022/06/08 13:05:25;;;;;;;5.27;1.40;;;;;;;;;;4995579;28;20412;-85
2022/06/08 13:07:54;;;;;;;2.77;1.30;;;;;;;;;;5000988;28;20437;-84
2022/06/08 13:10:33;;;;;;;2.63;1.20;;;;;;;;;;4985568;28;20520;-87
2022/06/08 13:13:09;;;;;;;2.67;1.57;;;;;;;;;;4976258;28;20428;-85
2022/06/08 13:15:39;;;;;;;9.10;1.90;;;;;;;;;;4971783;29;20424;-86
2022/06/08 13:18:16;;;;;;;;;;;;;;;;;;;;;
2022/06/08 13:20:52;;;;;;;1.80;1.10;;;;;;;;;;5000096;28;20401;-85
2022/06/08 13:23:20;;;;;;;2.15;1.23;;;;;;;;;;4986522;28;20440;-85
2022/06/08 13:25:58;;;;;;;1.90;1.20;;;;;;;;;;4982136;28;20189;-85
2022/06/08 13:31:23;;;;;;;2.93;1.70;;;;;;;;;;4975898;28;20413;-87
2022/06/08 13:33:56;;;;;;;2.00;1.17;;;;;;;;;;4967154;28;20471;-85
2022/06/08 13:36:25;;;;;;;3.40;1.53;;;;;;;;;;4966240;28;20441;-85
2022/06/08 13:38:52;;;;;;;3.40;1.23;;;;;;;;;;4982123;28;20430;-85
2022/06/08 13:41:23;;;;;;;2.00;1.13;;;;;;;;;;4981240;28;20413;-87
2022/06/08 13:43:49;;;;;;;3.40;1.50;;;;;;;;;;4968669;28;20416;-87
2022/06/08 13:46:23;;;;;;;2.63;1.20;;;;;;;;;;4982954;28;20492;-85
2022/06/08 13:48:53;;;;;;;4.10;2.17;;;;;;;;;;4980907;28;20416;-84
2022/06/08 13:51:31;;;;;;;1.80;1.00;;;;;;;;;;4980036;28;20417;-84
2022/06/08 13:57:21;;;;;;;2.50;1.23;;;;;;;;;;4904512;28;20510;-86
2022/06/08 14:16:00;;;;;;;;;;;;;;;;;;;;;
2022/06/08 14:29:31;;;;;;;;;;;;;;;;;;;;;
2022/06/08 14:35:58;;;;;;;;;;;;;;;;;;;;;
2022/06/08 14:42:22;;;;;;;;;;;;;;;;;;;;;
2022/06/08 14:45:36;;;;;;;3.60;1.47;;;;;;;;;;4903757;29;20484;-86
2022/06/08 14:50:47;;;;;;;2.30;1.40;;;;;;;;;;4624335;23;10715049;-86
2022/06/08 14:53:29;;;;;;;5.03;1.50;;;;;;;;;;4983725;28;20496;-88
2022/06/08 15:02:39;;;;;;;;;;;;;;;;;;;;;
2022/06/08 15:08:16;;;;;;;5.97;1.30;;;;;;;;;;4941684;29;20213;-89
2022/06/08 15:13:28;;;;;;;1.93;0.93;;;;;;;;;;4996030;28;20788;-88
2022/06/08 15:15:54;;;;;;;1.80;1.20;;;;;;;;;;4999160;28;20404;-87
2022/06/08 15:18:20;;;;;;;2.23;1.10;;;;;;;;;;4980614;28;20420;-88
2022/06/08 15:20:47;;;;;;;3.35;1.20;;;;;;;;;;4988531;28;20428;-86
2022/06/08 15:23:14;;;;;;;1.87;1.00;;;;;;;;;;4991751;28;20244;-88
2022/06/08 15:25:51;;;;;;;4.97;1.20;;;;;;;;;;4982244;28;20428;-85
2022/06/08 15:28:19;;;;;;;6.67;1.23;;;;;;;;;;4976889;28;20409;-85
2022/06/08 15:30:46;;;;;;;1.90;0.90;;;;;;;;;;4983877;28;20808;-87
2022/06/08 15:33:12;;;;;;;3.97;1.13;;;;;;;;;;4998773;28;20565;-86
2022/06/08 15:35:52;;;;;;;3.13;1.30;;;;;;;;;;5001663;28;20916;-85
2022/06/08 15:38:18;;;;;;;3.10;1.00;;;;;;;;;;4985692;28;20385;-86
2022/06/08 15:40:44;;;;;;;2.33;1.00;;;;;;;;;;4984561;28;20429;-87
2022/06/08 15:43:14;;;;;;;7.30;1.40;;;;;;;;;;4992663;28;20417;-87
2022/06/08 15:45:40;;;;;;;2.43;0.83;;;;;;;;;;5000235;28;20512;-83
2022/06/08 15:48:08;;;;;;;2.87;1.33;;;;;;;;;;5011608;28;20507;-82
2022/06/08 15:50:52;;;;;;;2.43;1.40;;;;;;;;;;5003981;28;20444;-86
2022/06/08 15:53:24;;;;;;;2.70;1.20;;;;;;;;;;5000560;28;20388;-86
2022/06/08 15:55:50;;;;;;;1.97;1.20;;;;;;;;;;5000130;28;20405;-86
2022/06/08 15:58:21;;;;;;;1.70;1.20;;;;;;;;;;5000260;28;20416;-87
2022/06/08 16:00:49;;;;;;;2.60;1.20;;;;;;;;;;4982832;28;20447;-86
2022/06/08 16:03:15;;;;;;;3.70;1.03;;;;;;;;;;4999676;28;20435;-86
2022/06/08 16:05:42;;;;;;;2.27;1.30;;;;;;;;;;5000936;28;20423;-87
2022/06/08 16:08:08;;;;;;;2.80;1.50;;;;;;;;;;4999289;28;20416;-86
2022/06/08 16:10:34;;;;;;;2.27;1.30;;;;;;;;;;5000154;28;20404;-86
2022/06/08 16:13:01;;;;;;;3.47;1.53;;;;;;;;;;4999499;28;20435;-86
2022/06/08 16:15:27;;;;;;;2.47;1.60;;;;;;;;;;4998864;28;20408;-86
2022/06/08 16:17:53;;;;;;;2.10;1.40;;;;;;;;;;4981346;28;20451;-86
2022/06/08 16:20:22;;;;;;;3.20;1.40;;;;;;;;;;4998665;28;20412;-86
2022/06/08 16:22:48;;;;;;;3.83;1.50;;;;;;;;;;4999746;28;20416;-86
2022/06/08 16:25:14;;;;;;;3.53;1.37;;;;;;;;;;4987489;28;20427;-86
2022/06/08 16:27:41;;;;;;;3.40;1.50;;;;;;;;;;5000116;28;20459;-86
2022/06/08 16:30:08;;;;;;;4.37;1.37;;;;;;;;;;5000144;28;20412;-86
2022/06/08 16:32:35;;;;;;;2.10;1.50;;;;;;;;;;5000301;28;20777;-86
2022/06/08 16:35:01;;;;;;;3.40;1.30;;;;;;;;;;4999848;28;20477;-86
2022/06/08 16:37:30;;;;;;;3.60;1.50;;;;;;;;;;5000099;28;20460;-86
2022/06/08 16:39:56;;;;;;;3.97;1.20;;;;;;;;;;5003081;28;20412;-86
2022/06/08 16:42:22;;;;;;;2.60;1.60;;;;;;;;;;4986064;28;20434;-86
2022/06/08 16:44:48;;;;;;;2.60;1.00;;;;;;;;;;5003547;28;20423;-86
2022/06/08 16:47:15;;;;;;;2.80;1.30;;;;;;;;;;5034930;22;20493;-85
2022/06/08 16:49:41;;;;;;;2.70;1.33;;;;;;;;;;4979709;28;20409;-86
2022/06/08 16:52:08;;;;;;;3.07;1.53;;;;;;;;;;4984672;28;20421;-85
2022/06/08 16:54:34;;;;;;;3.20;1.57;;;;;;;;;;4983232;28;20406;-84
2022/06/08 16:59:47;;;;;;;3.27;1.50;;;;;;;;;;4983675;28;20406;-85
2022/06/08 17:02:17;;;;;;;3.03;1.57;;;;;;;;;;4983833;28;20781;-84
2022/06/08 17:04:44;;;;;;;3.33;1.50;;;;;;;;;;4983625;28;20417;-85